sensor_id;sensor_type;location;lat;lon;timestamp;P1;durP1;ratioP1;P2;durP2;ratioP2
62543;SDS011;48597;49.030;1.822;2023-07-29T00:00:42;0.60;;;0.50;;
62543;SDS011;48597;49.030;1.822;2023-07-29T00:03:08;0.52;;;0.52;;
62543;SDS011;48597;49.030;1.822;2023-07-29T00:05:34;0.68;;;0.60;;
62543;SDS011;48597;49.030;1.822;2023-07-29T00:07:59;0.60;;;0.57;;
62543;SDS011;48597;49.030;1.822;2023-07-29T00:10:25;0.85;;;0.60;;
62543;SDS011;48597;49.030;1.822;2023-07-29T00:12:51;0.70;;;0.70;;
62543;SDS011;48597;49.030;1.822;2023-07-29T00:15:16;0.50;;;0.50;;
62543;SDS011;48597;49.030;1.822;2023-07-29T00:17:42;0.40;;;0.40;;
62543;SDS011;48597;49.030;1.822;2023-07-29T00:20:07;0.60;;;0.60;;
62543;SDS011;48597;49.030;1.822;2023-07-29T00:22:33;0.50;;;0.50;;
62543;SDS011;48597;49.030;1.822;2023-07-29T00:24:58;0.60;;;0.60;;
62543;SDS011;48597;49.030;1.822;2023-07-29T00:27:24;0.57;;;0.50;;
62543;SDS011;48597;49.030;1.822;2023-07-29T00:29:50;1.00;;;0.60;;
62543;SDS011;48597;49.030;1.822;2023-07-29T00:32:15;0.57;;;0.57;;
62543;SDS011;48597;49.030;1.822;2023-07-29T00:34:41;0.60;;;0.57;;
62543;SDS011;48597;49.030;1.822;2023-07-29T00:37:06;0.50;;;0.50;;
62543;SDS011;48597;49.030;1.822;2023-07-29T00:39:35;0.60;;;0.60;;
62543;SDS011;48597;49.030;1.822;2023-07-29T00:42:02;0.80;;;0.65;;
62543;SDS011;48597;49.030;1.822;2023-07-29T00:44:28;1.75;;;0.65;;
62543;SDS011;48597;49.030;1.822;2023-07-29T00:46:53;0.60;;;0.60;;
62543;SDS011;48597;49.030;1.822;2023-07-29T00:49:20;0.60;;;0.60;;
62543;SDS011;48597;49.030;1.822;2023-07-29T00:51:46;0.50;;;0.50;;
62543;SDS011;48597;49.030;1.822;2023-07-29T00:54:13;0.50;;;0.50;;
62543;SDS011;48597;49.030;1.822;2023-07-29T00:56:38;0.50;;;0.50;;
62543;SDS011;48597;49.030;1.822;2023-07-29T00:59:04;0.60;;;0.60;;
62543;SDS011;48597;49.030;1.822;2023-07-29T01:01:30;0.60;;;0.60;;
62543;SDS011;48597;49.030;1.822;2023-07-29T01:03:56;0.68;;;0.68;;
62543;SDS011;48597;49.030;1.822;2023-07-29T01:06:29;0.77;;;0.60;;
62543;SDS011;48597;49.030;1.822;2023-07-29T01:11:50;0.73;;;0.60;;
62543;SDS011;48597;49.030;1.822;2023-07-29T01:14:34;0.90;;;0.70;;
62543;SDS011;48597;49.030;1.822;2023-07-29T01:17:08;0.60;;;0.60;;
62543;SDS011;48597;49.030;1.822;2023-07-29T01:22:22;0.57;;;0.57;;
62543;SDS011;48597;49.030;1.822;2023-07-29T01:24:49;0.50;;;0.50;;
62543;SDS011;48597;49.030;1.822;2023-07-29T01:27:14;0.52;;;0.52;;
62543;SDS011;48597;49.030;1.822;2023-07-29T01:29:40;0.60;;;0.60;;
62543;SDS011;48597;49.030;1.822;2023-07-29T01:32:26;1.90;;;0.45;;
62543;SDS011;48597;49.030;1.822;2023-07-29T01:34:56;0.70;;;0.60;;
62543;SDS011;48597;49.030;1.822;2023-07-29T01:37:25;0.50;;;0.50;;
62543;SDS011;48597;49.030;1.822;2023-07-29T01:39:53;0.55;;;0.55;;
62543;SDS011;48597;49.030;1.822;2023-07-29T01:42:21;0.60;;;0.60;;
62543;SDS011;48597;49.030;1.822;2023-07-29T01:44:47;0.50;;;0.50;;
62543;SDS011;48597;49.030;1.822;2023-07-29T01:47:13;0.70;;;0.70;;
62543;SDS011;48597;49.030;1.822;2023-07-29T01:49:38;0.60;;;0.60;;
62543;SDS011;48597;49.030;1.822;2023-07-29T01:52:04;0.55;;;0.55;;
62543;SDS011;48597;49.030;1.822;2023-07-29T01:54:29;0.43;;;0.43;;
62543;SDS011;48597;49.030;1.822;2023-07-29T01:56:55;0.60;;;0.60;;
62543;SDS011;48597;49.030;1.822;2023-07-29T01:59:20;1.38;;;0.70;;
62543;SDS011;48597;49.030;1.822;2023-07-29T02:01:45;0.50;;;0.50;;
62543;SDS011;48597;49.030;1.822;2023-07-29T02:04:11;0.40;;;0.40;;
62543;SDS011;48597;49.030;1.822;2023-07-29T02:06:37;0.50;;;0.50;;
62543;SDS011;48597;49.030;1.822;2023-07-29T02:09:02;0.60;;;0.60;;
62543;SDS011;48597;49.030;1.822;2023-07-29T02:11:29;0.50;;;0.50;;
62543;SDS011;48597;49.030;1.822;2023-07-29T02:13:55;0.65;;;0.63;;
62543;SDS011;48597;49.030;1.822;2023-07-29T02:16:21;0.60;;;0.60;;
62543;SDS011;48597;49.030;1.822;2023-07-29T02:18:47;0.40;;;0.40;;
62543;SDS011;48597;49.030;1.822;2023-07-29T02:21:14;0.70;;;0.50;;
62543;SDS011;48597;49.030;1.822;2023-07-29T02:23:40;0.80;;;0.60;;
62543;SDS011;48597;49.030;1.822;2023-07-29T02:26:05;0.50;;;0.50;;
62543;SDS011;48597;49.030;1.822;2023-07-29T02:28:31;0.50;;;0.50;;
62543;SDS011;48597;49.030;1.822;2023-07-29T02:31:14;0.47;;;0.47;;
62543;SDS011;48597;49.030;1.822;2023-07-29T02:33:43;0.60;;;0.60;;
62543;SDS011;48597;49.030;1.822;2023-07-29T02:36:09;0.60;;;0.60;;
62543;SDS011;48597;49.030;1.822;2023-07-29T02:38:34;0.40;;;0.40;;
62543;SDS011;48597;49.030;1.822;2023-07-29T02:41:00;0.50;;;0.50;;
62543;SDS011;48597;49.030;1.822;2023-07-29T02:43:25;0.60;;;0.60;;
62543;SDS011;48597;49.030;1.822;2023-07-29T02:45:51;0.70;;;0.60;;
62543;SDS011;48597;49.030;1.822;2023-07-29T02:48:16;0.60;;;0.60;;
62543;SDS011;48597;49.030;1.822;2023-07-29T02:50:41;0.50;;;0.50;;
62543;SDS011;48597;49.030;1.822;2023-07-29T02:53:07;0.77;;;0.57;;
62543;SDS011;48597;49.030;1.822;2023-07-29T02:55:32;0.60;;;0.60;;
62543;SDS011;48597;49.030;1.822;2023-07-29T02:57:57;0.90;;;0.50;;
62543;SDS011;48597;49.030;1.822;2023-07-29T03:00:23;0.60;;;0.60;;
62543;SDS011;48597;49.030;1.822;2023-07-29T03:02:49;0.68;;;0.52;;
62543;SDS011;48597;49.030;1.822;2023-07-29T03:05:15;0.50;;;0.50;;
62543;SDS011;48597;49.030;1.822;2023-07-29T03:07:41;0.73;;;0.60;;
62543;SDS011;48597;49.030;1.822;2023-07-29T03:10:06;0.50;;;0.50;;
62543;SDS011;48597;49.030;1.822;2023-07-29T03:12:32;0.60;;;0.60;;
62543;SDS011;48597;49.030;1.822;2023-07-29T03:14:57;0.70;;;0.50;;
62543;SDS011;48597;49.030;1.822;2023-07-29T03:17:23;0.70;;;0.70;;
62543;SDS011;48597;49.030;1.822;2023-07-29T03:19:49;0.70;;;0.52;;
62543;SDS011;48597;49.030;1.822;2023-07-29T03:22:15;0.40;;;0.40;;
62543;SDS011;48597;49.030;1.822;2023-07-29T03:24:40;0.50;;;0.50;;
62543;SDS011;48597;49.030;1.822;2023-07-29T03:27:07;0.50;;;0.50;;
62543;SDS011;48597;49.030;1.822;2023-07-29T03:29:34;0.65;;;0.65;;
62543;SDS011;48597;49.030;1.822;2023-07-29T03:32:03;0.55;;;0.55;;
62543;SDS011;48597;49.030;1.822;2023-07-29T03:34:29;0.47;;;0.47;;
62543;SDS011;48597;49.030;1.822;2023-07-29T03:36:54;0.50;;;0.50;;
62543;SDS011;48597;49.030;1.822;2023-07-29T03:39:20;0.75;;;0.57;;
62543;SDS011;48597;49.030;1.822;2023-07-29T03:41:45;0.43;;;0.43;;
62543;SDS011;48597;49.030;1.822;2023-07-29T03:44:10;0.98;;;0.50;;
62543;SDS011;48597;49.030;1.822;2023-07-29T03:46:36;0.60;;;0.60;;
62543;SDS011;48597;49.030;1.822;2023-07-29T03:49:01;0.47;;;0.47;;
62543;SDS011;48597;49.030;1.822;2023-07-29T03:51:28;0.43;;;0.43;;
62543;SDS011;48597;49.030;1.822;2023-07-29T03:53:53;0.60;;;0.60;;
62543;SDS011;48597;49.030;1.822;2023-07-29T03:56:18;0.57;;;0.57;;
62543;SDS011;48597;49.030;1.822;2023-07-29T03:58:45;0.63;;;0.50;;
62543;SDS011;48597;49.030;1.822;2023-07-29T04:01:11;0.70;;;0.60;;
62543;SDS011;48597;49.030;1.822;2023-07-29T04:03:37;0.52;;;0.52;;
62543;SDS011;48597;49.030;1.822;2023-07-29T04:06:02;0.50;;;0.50;;
62543;SDS011;48597;49.030;1.822;2023-07-29T04:08:28;0.50;;;0.50;;
62543;SDS011;48597;49.030;1.822;2023-07-29T04:10:53;0.63;;;0.60;;
62543;SDS011;48597;49.030;1.822;2023-07-29T04:13:18;0.60;;;0.60;;
62543;SDS011;48597;49.030;1.822;2023-07-29T04:15:44;0.73;;;0.50;;
62543;SDS011;48597;49.030;1.822;2023-07-29T04:18:10;0.45;;;0.45;;
62543;SDS011;48597;49.030;1.822;2023-07-29T04:20:35;0.50;;;0.50;;
62543;SDS011;48597;49.030;1.822;2023-07-29T04:23:00;0.60;;;0.60;;
62543;SDS011;48597;49.030;1.822;2023-07-29T04:25:27;0.60;;;0.60;;
62543;SDS011;48597;49.030;1.822;2023-07-29T04:27:53;0.60;;;0.60;;
62543;SDS011;48597;49.030;1.822;2023-07-29T04:30:19;0.50;;;0.50;;
62543;SDS011;48597;49.030;1.822;2023-07-29T04:32:44;0.50;;;0.50;;
62543;SDS011;48597;49.030;1.822;2023-07-29T04:35:13;0.60;;;0.60;;
62543;SDS011;48597;49.030;1.822;2023-07-29T04:37:39;0.50;;;0.50;;
62543;SDS011;48597;49.030;1.822;2023-07-29T04:40:05;0.50;;;0.50;;
62543;SDS011;48597;49.030;1.822;2023-07-29T04:42:32;0.40;;;0.40;;
62543;SDS011;48597;49.030;1.822;2023-07-29T04:44:57;0.50;;;0.50;;
62543;SDS011;48597;49.030;1.822;2023-07-29T04:47:23;0.40;;;0.40;;
62543;SDS011;48597;49.030;1.822;2023-07-29T04:49:48;0.50;;;0.50;;
62543;SDS011;48597;49.030;1.822;2023-07-29T04:52:14;0.45;;;0.45;;
62543;SDS011;48597;49.030;1.822;2023-07-29T04:54:40;0.45;;;0.45;;
62543;SDS011;48597;49.030;1.822;2023-07-29T04:57:06;0.68;;;0.60;;
62543;SDS011;48597;49.030;1.822;2023-07-29T04:59:32;0.47;;;0.47;;
62543;SDS011;48597;49.030;1.822;2023-07-29T05:01:57;0.68;;;0.45;;
62543;SDS011;48597;49.030;1.822;2023-07-29T05:04:23;2.15;;;0.50;;
62543;SDS011;48597;49.030;1.822;2023-07-29T05:06:48;0.60;;;0.60;;
62543;SDS011;48597;49.030;1.822;2023-07-29T05:09:14;0.50;;;0.50;;
62543;SDS011;48597;49.030;1.822;2023-07-29T05:11:40;0.50;;;0.50;;
62543;SDS011;48597;49.030;1.822;2023-07-29T05:14:06;0.50;;;0.50;;
62543;SDS011;48597;49.030;1.822;2023-07-29T05:16:31;0.52;;;0.52;;
62543;SDS011;48597;49.030;1.822;2023-07-29T05:18:57;0.50;;;0.50;;
62543;SDS011;48597;49.030;1.822;2023-07-29T05:21:22;0.45;;;0.45;;
62543;SDS011;48597;49.030;1.822;2023-07-29T05:23:48;0.65;;;0.40;;
62543;SDS011;48597;49.030;1.822;2023-07-29T05:26:13;0.85;;;0.43;;
62543;SDS011;48597;49.030;1.822;2023-07-29T05:28:39;0.60;;;0.60;;
62543;SDS011;48597;49.030;1.822;2023-07-29T05:31:04;0.47;;;0.40;;
62543;SDS011;48597;49.030;1.822;2023-07-29T05:33:29;1.95;;;0.50;;
62543;SDS011;48597;49.030;1.822;2023-07-29T05:35:55;0.50;;;0.50;;
62543;SDS011;48597;49.030;1.822;2023-07-29T05:38:20;0.40;;;0.40;;
62543;SDS011;48597;49.030;1.822;2023-07-29T05:40:47;0.60;;;0.60;;
62543;SDS011;48597;49.030;1.822;2023-07-29T05:43:13;0.50;;;0.50;;
62543;SDS011;48597;49.030;1.822;2023-07-29T05:45:39;0.50;;;0.50;;
62543;SDS011;48597;49.030;1.822;2023-07-29T05:48:05;0.60;;;0.60;;
62543;SDS011;48597;49.030;1.822;2023-07-29T05:50:31;0.40;;;0.40;;
62543;SDS011;48597;49.030;1.822;2023-07-29T05:52:56;0.50;;;0.50;;
62543;SDS011;48597;49.030;1.822;2023-07-29T05:55:22;0.50;;;0.50;;
62543;SDS011;48597;49.030;1.822;2023-07-29T05:57:47;0.45;;;0.45;;
62543;SDS011;48597;49.030;1.822;2023-07-29T06:00:12;1.60;;;0.50;;
62543;SDS011;48597;49.030;1.822;2023-07-29T06:02:38;0.50;;;0.50;;
62543;SDS011;48597;49.030;1.822;2023-07-29T06:05:04;0.82;;;0.47;;
62543;SDS011;48597;49.030;1.822;2023-07-29T06:07:30;0.70;;;0.70;;
62543;SDS011;48597;49.030;1.822;2023-07-29T06:09:57;0.50;;;0.50;;
62543;SDS011;48597;49.030;1.822;2023-07-29T06:12:23;0.73;;;0.60;;
62543;SDS011;48597;49.030;1.822;2023-07-29T06:14:48;0.57;;;0.57;;
62543;SDS011;48597;49.030;1.822;2023-07-29T06:17:13;0.40;;;0.40;;
62543;SDS011;48597;49.030;1.822;2023-07-29T06:19:39;0.52;;;0.52;;
62543;SDS011;48597;49.030;1.822;2023-07-29T06:22:05;0.55;;;0.55;;
62543;SDS011;48597;49.030;1.822;2023-07-29T06:24:30;0.55;;;0.55;;
62543;SDS011;48597;49.030;1.822;2023-07-29T06:26:57;1.58;;;0.50;;
62543;SDS011;48597;49.030;1.822;2023-07-29T06:29:22;0.55;;;0.52;;
62543;SDS011;48597;49.030;1.822;2023-07-29T06:31:48;0.40;;;0.40;;
62543;SDS011;48597;49.030;1.822;2023-07-29T06:34:13;0.80;;;0.43;;
62543;SDS011;48597;49.030;1.822;2023-07-29T06:36:38;0.50;;;0.50;;
62543;SDS011;48597;49.030;1.822;2023-07-29T06:39:04;0.65;;;0.52;;
62543;SDS011;48597;49.030;1.822;2023-07-29T06:41:29;0.50;;;0.50;;
62543;SDS011;48597;49.030;1.822;2023-07-29T06:43:55;0.63;;;0.45;;
62543;SDS011;48597;49.030;1.822;2023-07-29T06:46:21;0.40;;;0.40;;
62543;SDS011;48597;49.030;1.822;2023-07-29T06:48:46;0.63;;;0.50;;
62543;SDS011;48597;49.030;1.822;2023-07-29T06:51:11;0.60;;;0.60;;
62543;SDS011;48597;49.030;1.822;2023-07-29T06:53:37;0.38;;;0.38;;
62543;SDS011;48597;49.030;1.822;2023-07-29T06:56:02;0.50;;;0.50;;
62543;SDS011;48597;49.030;1.822;2023-07-29T06:58:28;0.50;;;0.50;;
62543;SDS011;48597;49.030;1.822;2023-07-29T07:00:54;0.50;;;0.50;;
62543;SDS011;48597;49.030;1.822;2023-07-29T07:03:19;0.40;;;0.40;;
62543;SDS011;48597;49.030;1.822;2023-07-29T07:05:44;0.60;;;0.50;;
62543;SDS011;48597;49.030;1.822;2023-07-29T07:08:10;0.43;;;0.43;;
62543;SDS011;48597;49.030;1.822;2023-07-29T07:10:35;1.27;;;0.50;;
62543;SDS011;48597;49.030;1.822;2023-07-29T07:13:01;0.47;;;0.47;;
62543;SDS011;48597;49.030;1.822;2023-07-29T07:15:26;0.47;;;0.40;;
62543;SDS011;48597;49.030;1.822;2023-07-29T07:17:52;0.63;;;0.50;;
62543;SDS011;48597;49.030;1.822;2023-07-29T07:20:17;1.02;;;0.40;;
62543;SDS011;48597;49.030;1.822;2023-07-29T07:22:42;0.32;;;0.32;;
62543;SDS011;48597;49.030;1.822;2023-07-29T07:25:08;0.75;;;0.50;;
62543;SDS011;48597;49.030;1.822;2023-07-29T07:27:33;0.40;;;0.40;;
62543;SDS011;48597;49.030;1.822;2023-07-29T07:29:59;0.40;;;0.40;;
62543;SDS011;48597;49.030;1.822;2023-07-29T07:32:24;0.50;;;0.50;;
62543;SDS011;48597;49.030;1.822;2023-07-29T07:34:51;0.40;;;0.40;;
62543;SDS011;48597;49.030;1.822;2023-07-29T07:37:16;0.40;;;0.40;;
62543;SDS011;48597;49.030;1.822;2023-07-29T07:39:41;0.40;;;0.40;;
62543;SDS011;48597;49.030;1.822;2023-07-29T07:42:07;1.08;;;0.50;;
62543;SDS011;48597;49.030;1.822;2023-07-29T07:44:32;1.08;;;0.47;;
62543;SDS011;48597;49.030;1.822;2023-07-29T07:46:58;1.65;;;0.50;;
62543;SDS011;48597;49.030;1.822;2023-07-29T07:49:23;0.95;;;0.50;;
62543;SDS011;48597;49.030;1.822;2023-07-29T07:51:48;0.40;;;0.40;;
62543;SDS011;48597;49.030;1.822;2023-07-29T07:54:14;2.15;;;0.50;;
62543;SDS011;48597;49.030;1.822;2023-07-29T07:56:39;0.63;;;0.43;;
62543;SDS011;48597;49.030;1.822;2023-07-29T07:59:05;0.50;;;0.50;;
62543;SDS011;48597;49.030;1.822;2023-07-29T08:01:34;0.40;;;0.40;;
62543;SDS011;48597;49.030;1.822;2023-07-29T08:04:01;0.40;;;0.40;;
62543;SDS011;48597;49.030;1.822;2023-07-29T08:06:26;0.40;;;0.40;;
62543;SDS011;48597;49.030;1.822;2023-07-29T08:08:52;0.95;;;0.47;;
62543;SDS011;48597;49.030;1.822;2023-07-29T08:11:17;1.05;;;0.50;;
62543;SDS011;48597;49.030;1.822;2023-07-29T08:13:42;0.73;;;0.40;;
62543;SDS011;48597;49.030;1.822;2023-07-29T08:16:08;0.85;;;0.57;;
62543;SDS011;48597;49.030;1.822;2023-07-29T08:18:33;1.20;;;0.60;;
62543;SDS011;48597;49.030;1.822;2023-07-29T08:20:59;1.35;;;0.50;;
62543;SDS011;48597;49.030;1.822;2023-07-29T08:23:32;1.05;;;0.50;;
62543;SDS011;48597;49.030;1.822;2023-07-29T08:25:59;0.40;;;0.40;;
62543;SDS011;48597;49.030;1.822;2023-07-29T08:28:30;2.63;;;0.50;;
62543;SDS011;48597;49.030;1.822;2023-07-29T08:30:57;0.40;;;0.40;;
62543;SDS011;48597;49.030;1.822;2023-07-29T08:33:23;0.50;;;0.50;;
62543;SDS011;48597;49.030;1.822;2023-07-29T08:35:49;0.52;;;0.50;;
62543;SDS011;48597;49.030;1.822;2023-07-29T08:38:15;0.38;;;0.38;;
62543;SDS011;48597;49.030;1.822;2023-07-29T08:41:04;0.50;;;0.50;;
62543;SDS011;48597;49.030;1.822;2023-07-29T08:43:29;0.52;;;0.50;;
62543;SDS011;48597;49.030;1.822;2023-07-29T08:45:56;0.32;;;0.32;;
62543;SDS011;48597;49.030;1.822;2023-07-29T08:48:23;0.40;;;0.40;;
62543;SDS011;48597;49.030;1.822;2023-07-29T08:51:05;0.70;;;0.68;;
62543;SDS011;48597;49.030;1.822;2023-07-29T08:53:32;1.30;;;0.63;;
62543;SDS011;48597;49.030;1.822;2023-07-29T08:55:58;0.82;;;0.57;;
62543;SDS011;48597;49.030;1.822;2023-07-29T08:58:24;4.85;;;0.82;;
62543;SDS011;48597;49.030;1.822;2023-07-29T09:00:50;0.82;;;0.60;;
62543;SDS011;48597;49.030;1.822;2023-07-29T09:03:16;1.48;;;0.47;;
62543;SDS011;48597;49.030;1.822;2023-07-29T09:05:41;2.42;;;0.60;;
62543;SDS011;48597;49.030;1.822;2023-07-29T09:08:06;1.35;;;0.68;;
62543;SDS011;48597;49.030;1.822;2023-07-29T09:10:36;0.75;;;0.65;;
62543;SDS011;48597;49.030;1.822;2023-07-29T09:13:03;2.73;;;0.70;;
62543;SDS011;48597;49.030;1.822;2023-07-29T09:15:29;1.35;;;0.50;;
62543;SDS011;48597;49.030;1.822;2023-07-29T09:17:57;2.58;;;0.80;;
62543;SDS011;48597;49.030;1.822;2023-07-29T09:20:23;1.45;;;0.60;;
62543;SDS011;48597;49.030;1.822;2023-07-29T09:22:55;2.75;;;0.65;;
62543;SDS011;48597;49.030;1.822;2023-07-29T09:25:24;0.57;;;0.50;;
62543;SDS011;48597;49.030;1.822;2023-07-29T09:27:58;0.60;;;0.60;;
62543;SDS011;48597;49.030;1.822;2023-07-29T09:30:25;0.98;;;0.50;;
62543;SDS011;48597;49.030;1.822;2023-07-29T09:32:57;1.38;;;0.60;;
62543;SDS011;48597;49.030;1.822;2023-07-29T09:35:23;0.80;;;0.50;;
62543;SDS011;48597;49.030;1.822;2023-07-29T09:37:50;0.70;;;0.50;;
62543;SDS011;48597;49.030;1.822;2023-07-29T09:40:17;1.10;;;0.70;;
62543;SDS011;48597;49.030;1.822;2023-07-29T09:42:49;2.33;;;0.70;;
62543;SDS011;48597;49.030;1.822;2023-07-29T09:45:19;1.33;;;0.70;;
62543;SDS011;48597;49.030;1.822;2023-07-29T09:47:48;1.27;;;0.70;;
62543;SDS011;48597;49.030;1.822;2023-07-29T09:50:14;0.70;;;0.70;;
62543;SDS011;48597;49.030;1.822;2023-07-29T09:52:41;1.58;;;0.60;;
62543;SDS011;48597;49.030;1.822;2023-07-29T09:55:06;1.27;;;1.00;;
62543;SDS011;48597;49.030;1.822;2023-07-29T09:57:32;1.25;;;0.80;;
62543;SDS011;48597;49.030;1.822;2023-07-29T09:59:59;1.55;;;0.65;;
62543;SDS011;48597;49.030;1.822;2023-07-29T10:02:24;0.85;;;0.70;;
62543;SDS011;48597;49.030;1.822;2023-07-29T10:04:53;1.13;;;0.70;;
62543;SDS011;48597;49.030;1.822;2023-07-29T10:07:20;0.82;;;0.82;;
62543;SDS011;48597;49.030;1.822;2023-07-29T10:09:46;1.40;;;0.75;;
62543;SDS011;48597;49.030;1.822;2023-07-29T10:12:13;1.63;;;0.73;;
62543;SDS011;48597;49.030;1.822;2023-07-29T10:14:38;1.38;;;0.80;;
62543;SDS011;48597;49.030;1.822;2023-07-29T10:17:04;1.13;;;0.77;;
62543;SDS011;48597;49.030;1.822;2023-07-29T10:19:30;1.00;;;0.80;;
62543;SDS011;48597;49.030;1.822;2023-07-29T10:21:57;1.77;;;0.93;;
62543;SDS011;48597;49.030;1.822;2023-07-29T10:24:27;0.95;;;0.80;;
62543;SDS011;48597;49.030;1.822;2023-07-29T10:26:57;1.02;;;0.90;;
62543;SDS011;48597;49.030;1.822;2023-07-29T10:29:24;1.65;;;0.90;;
62543;SDS011;48597;49.030;1.822;2023-07-29T10:31:56;1.98;;;1.00;;
62543;SDS011;48597;49.030;1.822;2023-07-29T10:34:26;1.67;;;0.95;;
62543;SDS011;48597;49.030;1.822;2023-07-29T10:36:52;1.88;;;1.02;;
62543;SDS011;48597;49.030;1.822;2023-07-29T10:39:39;1.55;;;0.98;;
62543;SDS011;48597;49.030;1.822;2023-07-29T10:42:16;1.80;;;0.80;;
62543;SDS011;48597;49.030;1.822;2023-07-29T10:47:20;1.60;;;0.90;;
62543;SDS011;48597;49.030;1.822;2023-07-29T10:49:57;1.83;;;1.00;;
62543;SDS011;48597;49.030;1.822;2023-07-29T10:54:55;2.00;;;1.10;;
62543;SDS011;48597;49.030;1.822;2023-07-29T10:57:35;3.45;;;1.10;;
62543;SDS011;48597;49.030;1.822;2023-07-29T11:00:07;1.85;;;1.05;;
62543;SDS011;48597;49.030;1.822;2023-07-29T11:02:36;1.63;;;0.98;;
62543;SDS011;48597;49.030;1.822;2023-07-29T11:05:15;1.90;;;0.80;;
62543;SDS011;48597;49.030;1.822;2023-07-29T11:07:46;0.80;;;0.80;;
62543;SDS011;48597;49.030;1.822;2023-07-29T11:10:13;3.28;;;0.85;;
62543;SDS011;48597;49.030;1.822;2023-07-29T11:17:39;2.33;;;1.05;;
62543;SDS011;48597;49.030;1.822;2023-07-29T11:20:07;2.67;;;1.23;;
62543;SDS011;48597;49.030;1.822;2023-07-29T11:22:33;1.90;;;0.95;;
62543;SDS011;48597;49.030;1.822;2023-07-29T11:24:59;1.05;;;0.90;;
62543;SDS011;48597;49.030;1.822;2023-07-29T11:27:25;2.88;;;1.00;;
62543;SDS011;48597;49.030;1.822;2023-07-29T11:29:50;2.20;;;1.15;;
62543;SDS011;48597;49.030;1.822;2023-07-29T11:32:21;1.38;;;0.90;;
62543;SDS011;48597;49.030;1.822;2023-07-29T11:34:46;1.52;;;0.95;;
62543;SDS011;48597;49.030;1.822;2023-07-29T11:37:11;1.75;;;0.88;;
62543;SDS011;48597;49.030;1.822;2023-07-29T11:39:40;1.33;;;0.95;;
62543;SDS011;48597;49.030;1.822;2023-07-29T11:42:06;3.45;;;1.10;;
62543;SDS011;48597;49.030;1.822;2023-07-29T11:44:32;1.70;;;1.02;;
62543;SDS011;48597;49.030;1.822;2023-07-29T11:46:57;2.72;;;0.90;;
62543;SDS011;48597;49.030;1.822;2023-07-29T11:49:22;1.27;;;0.80;;
62543;SDS011;48597;49.030;1.822;2023-07-29T11:51:48;1.02;;;0.90;;
62543;SDS011;48597;49.030;1.822;2023-07-29T11:54:14;3.47;;;1.20;;
62543;SDS011;48597;49.030;1.822;2023-07-29T11:56:40;0.93;;;0.80;;
62543;SDS011;48597;49.030;1.822;2023-07-29T11:59:06;2.00;;;0.90;;
62543;SDS011;48597;49.030;1.822;2023-07-29T12:01:32;2.75;;;1.10;;
62543;SDS011;48597;49.030;1.822;2023-07-29T12:03:58;1.67;;;0.85;;
62543;SDS011;48597;49.030;1.822;2023-07-29T12:06:24;1.67;;;0.90;;
62543;SDS011;48597;49.030;1.822;2023-07-29T12:08:50;1.67;;;0.90;;
62543;SDS011;48597;49.030;1.822;2023-07-29T12:11:16;1.80;;;0.82;;
62543;SDS011;48597;49.030;1.822;2023-07-29T12:13:42;1.33;;;0.90;;
62543;SDS011;48597;49.030;1.822;2023-07-29T12:16:08;1.75;;;0.98;;
62543;SDS011;48597;49.030;1.822;2023-07-29T12:18:33;2.58;;;1.00;;
62543;SDS011;48597;49.030;1.822;2023-07-29T12:20:59;2.50;;;1.02;;
62543;SDS011;48597;49.030;1.822;2023-07-29T12:23:25;1.13;;;0.93;;
62543;SDS011;48597;49.030;1.822;2023-07-29T12:25:51;2.58;;;0.95;;
62543;SDS011;48597;49.030;1.822;2023-07-29T12:30:47;1.75;;;0.88;;
62543;SDS011;48597;49.030;1.822;2023-07-29T12:33:28;4.57;;;1.10;;
62543;SDS011;48597;49.030;1.822;2023-07-29T12:36:01;1.48;;;0.90;;
62543;SDS011;48597;49.030;1.822;2023-07-29T12:38:27;2.08;;;0.98;;
62543;SDS011;48597;49.030;1.822;2023-07-29T12:40:53;2.28;;;1.00;;
62543;SDS011;48597;49.030;1.822;2023-07-29T12:43:19;2.78;;;1.40;;
62543;SDS011;48597;49.030;1.822;2023-07-29T12:45:44;6.80;;;1.70;;
62543;SDS011;48597;49.030;1.822;2023-07-29T12:48:10;3.08;;;1.40;;
62543;SDS011;48597;49.030;1.822;2023-07-29T12:50:36;4.35;;;1.30;;
62543;SDS011;48597;49.030;1.822;2023-07-29T12:53:04;1.90;;;1.10;;
62543;SDS011;48597;49.030;1.822;2023-07-29T12:55:30;2.33;;;1.02;;
62543;SDS011;48597;49.030;1.822;2023-07-29T12:57:55;3.15;;;1.17;;
62543;SDS011;48597;49.030;1.822;2023-07-29T13:00:21;2.08;;;1.20;;
62543;SDS011;48597;49.030;1.822;2023-07-29T13:02:46;1.77;;;1.10;;
62543;SDS011;48597;49.030;1.822;2023-07-29T13:05:11;2.40;;;1.20;;
62543;SDS011;48597;49.030;1.822;2023-07-29T13:07:40;1.48;;;1.00;;
62543;SDS011;48597;49.030;1.822;2023-07-29T13:10:08;2.67;;;0.82;;
62543;SDS011;48597;49.030;1.822;2023-07-29T13:12:34;2.45;;;1.02;;
62543;SDS011;48597;49.030;1.822;2023-07-29T13:14:59;1.17;;;0.93;;
62543;SDS011;48597;49.030;1.822;2023-07-29T13:17:25;2.03;;;1.20;;
62543;SDS011;48597;49.030;1.822;2023-07-29T13:19:50;1.85;;;0.98;;
62543;SDS011;48597;49.030;1.822;2023-07-29T13:22:16;4.13;;;1.20;;
62543;SDS011;48597;49.030;1.822;2023-07-29T13:24:42;2.17;;;1.10;;
62543;SDS011;48597;49.030;1.822;2023-07-29T13:27:07;3.53;;;1.30;;
62543;SDS011;48597;49.030;1.822;2023-07-29T13:29:32;1.15;;;0.98;;
62543;SDS011;48597;49.030;1.822;2023-07-29T13:31:58;2.10;;;0.95;;
62543;SDS011;48597;49.030;1.822;2023-07-29T13:34:23;2.38;;;1.10;;
62543;SDS011;48597;49.030;1.822;2023-07-29T13:36:48;1.75;;;1.02;;
62543;SDS011;48597;49.030;1.822;2023-07-29T13:39:14;2.17;;;1.13;;
62543;SDS011;48597;49.030;1.822;2023-07-29T13:41:40;1.70;;;0.98;;
62543;SDS011;48597;49.030;1.822;2023-07-29T13:44:05;3.38;;;1.02;;
62543;SDS011;48597;49.030;1.822;2023-07-29T13:46:31;2.33;;;1.10;;
62543;SDS011;48597;49.030;1.822;2023-07-29T13:48:56;2.28;;;0.98;;
62543;SDS011;48597;49.030;1.822;2023-07-29T13:51:22;2.88;;;1.02;;
62543;SDS011;48597;49.030;1.822;2023-07-29T13:53:47;2.70;;;1.00;;
62543;SDS011;48597;49.030;1.822;2023-07-29T13:56:13;1.65;;;1.00;;
62543;SDS011;48597;49.030;1.822;2023-07-29T13:58:39;1.15;;;0.80;;
62543;SDS011;48597;49.030;1.822;2023-07-29T14:01:05;1.30;;;1.05;;
62543;SDS011;48597;49.030;1.822;2023-07-29T14:03:30;1.02;;;0.80;;
62543;SDS011;48597;49.030;1.822;2023-07-29T14:05:55;1.42;;;0.93;;
62543;SDS011;48597;49.030;1.822;2023-07-29T14:08:21;1.80;;;0.90;;
62543;SDS011;48597;49.030;1.822;2023-07-29T14:10:48;1.77;;;0.90;;
62543;SDS011;48597;49.030;1.822;2023-07-29T14:13:14;2.03;;;1.20;;
62543;SDS011;48597;49.030;1.822;2023-07-29T14:15:39;1.42;;;0.90;;
62543;SDS011;48597;49.030;1.822;2023-07-29T14:18:05;2.28;;;1.00;;
62543;SDS011;48597;49.030;1.822;2023-07-29T14:20:31;1.55;;;0.90;;
62543;SDS011;48597;49.030;1.822;2023-07-29T14:22:57;1.55;;;1.00;;
62543;SDS011;48597;49.030;1.822;2023-07-29T14:25:23;1.40;;;0.90;;
62543;SDS011;48597;49.030;1.822;2023-07-29T14:27:48;1.65;;;0.90;;
62543;SDS011;48597;49.030;1.822;2023-07-29T14:30:14;1.58;;;0.80;;
62543;SDS011;48597;49.030;1.822;2023-07-29T14:32:39;1.05;;;0.90;;
62543;SDS011;48597;49.030;1.822;2023-07-29T14:35:05;1.67;;;0.88;;
62543;SDS011;48597;49.030;1.822;2023-07-29T14:37:32;1.05;;;0.70;;
62543;SDS011;48597;49.030;1.822;2023-07-29T14:39:58;1.80;;;1.00;;
62543;SDS011;48597;49.030;1.822;2023-07-29T14:42:24;2.55;;;0.90;;
62543;SDS011;48597;49.030;1.822;2023-07-29T14:44:49;2.05;;;1.13;;
62543;SDS011;48597;49.030;1.822;2023-07-29T14:47:15;2.25;;;1.00;;
62543;SDS011;48597;49.030;1.822;2023-07-29T14:49:40;2.38;;;0.77;;
62543;SDS011;48597;49.030;1.822;2023-07-29T14:52:06;3.92;;;1.17;;
62543;SDS011;48597;49.030;1.822;2023-07-29T14:54:31;2.63;;;0.95;;
62543;SDS011;48597;49.030;1.822;2023-07-29T14:56:57;1.50;;;0.90;;
62543;SDS011;48597;49.030;1.822;2023-07-29T14:59:22;2.65;;;0.90;;
62543;SDS011;48597;49.030;1.822;2023-07-29T15:01:48;1.20;;;0.90;;